sensor_id;sensor_type;location;lat;lon;timestamp;P1;durP1;ratioP1;P2;durP2;ratioP2
52322;SDS011;38263;52.920;6.238;2024-01-27T00:01:42;16.40;;;3.55;;
52322;SDS011;38263;52.920;6.238;2024-01-27T00:04:08;20.88;;;3.17;;
52322;SDS011;38263;52.920;6.238;2024-01-27T00:06:34;18.35;;;3.13;;
52322;SDS011;38263;52.920;6.238;2024-01-27T00:09:00;19.25;;;4.20;;
52322;SDS011;38263;52.920;6.238;2024-01-27T00:11:26;21.10;;;3.78;;
52322;SDS011;38263;52.920;6.238;2024-01-27T00:13:52;25.58;;;4.35;;
52322;SDS011;38263;52.920;6.238;2024-01-27T00:16:18;18.45;;;3.50;;
52322;SDS011;38263;52.920;6.238;2024-01-27T00:18:45;20.95;;;3.92;;
52322;SDS011;38263;52.920;6.238;2024-01-27T00:21:11;17.10;;;2.97;;
52322;SDS011;38263;52.920;6.238;2024-01-27T00:23:37;14.60;;;3.38;;
52322;SDS011;38263;52.920;6.238;2024-01-27T00:26:03;25.40;;;3.75;;
52322;SDS011;38263;52.920;6.238;2024-01-27T00:28:29;16.75;;;3.33;;
52322;SDS011;38263;52.920;6.238;2024-01-27T00:30:55;17.95;;;3.83;;
52322;SDS011;38263;52.920;6.238;2024-01-27T00:33:22;12.98;;;2.97;;
52322;SDS011;38263;52.920;6.238;2024-01-27T00:35:48;22.10;;;4.68;;
52322;SDS011;38263;52.920;6.238;2024-01-27T00:38:14;15.73;;;3.13;;
52322;SDS011;38263;52.920;6.238;2024-01-27T00:40:40;22.92;;;5.47;;
52322;SDS011;38263;52.920;6.238;2024-01-27T00:43:06;16.92;;;4.03;;
52322;SDS011;38263;52.920;6.238;2024-01-27T00:45:32;10.45;;;3.38;;
52322;SDS011;38263;52.920;6.238;2024-01-27T00:47:58;18.63;;;4.03;;
52322;SDS011;38263;52.920;6.238;2024-01-27T00:50:24;16.50;;;3.47;;
52322;SDS011;38263;52.920;6.238;2024-01-27T00:52:50;19.48;;;3.40;;
52322;SDS011;38263;52.920;6.238;2024-01-27T00:55:16;14.48;;;3.35;;
52322;SDS011;38263;52.920;6.238;2024-01-27T00:57:43;16.00;;;3.88;;
52322;SDS011;38263;52.920;6.238;2024-01-27T01:00:09;19.50;;;3.92;;
52322;SDS011;38263;52.920;6.238;2024-01-27T01:02:36;23.00;;;3.45;;
52322;SDS011;38263;52.920;6.238;2024-01-27T01:05:02;12.73;;;3.50;;
52322;SDS011;38263;52.920;6.238;2024-01-27T01:07:29;18.60;;;3.33;;
52322;SDS011;38263;52.920;6.238;2024-01-27T01:09:55;19.75;;;3.08;;
52322;SDS011;38263;52.920;6.238;2024-01-27T01:12:21;17.65;;;3.90;;
52322;SDS011;38263;52.920;6.238;2024-01-27T01:14:47;17.25;;;2.92;;
52322;SDS011;38263;52.920;6.238;2024-01-27T01:17:13;14.10;;;2.85;;
52322;SDS011;38263;52.920;6.238;2024-01-27T01:19:40;10.70;;;3.30;;
52322;SDS011;38263;52.920;6.238;2024-01-27T01:22:06;13.00;;;3.25;;
52322;SDS011;38263;52.920;6.238;2024-01-27T01:24:33;18.02;;;2.97;;
52322;SDS011;38263;52.920;6.238;2024-01-27T01:26:59;18.52;;;4.25;;
52322;SDS011;38263;52.920;6.238;2024-01-27T01:29:25;13.30;;;3.28;;
52322;SDS011;38263;52.920;6.238;2024-01-27T01:31:51;11.27;;;2.58;;
52322;SDS011;38263;52.920;6.238;2024-01-27T01:34:17;22.52;;;3.47;;
52322;SDS011;38263;52.920;6.238;2024-01-27T01:36:43;12.13;;;3.28;;
52322;SDS011;38263;52.920;6.238;2024-01-27T01:39:10;18.30;;;4.50;;
52322;SDS011;38263;52.920;6.238;2024-01-27T01:41:40;16.55;;;3.40;;
52322;SDS011;38263;52.920;6.238;2024-01-27T01:44:06;12.68;;;3.45;;
52322;SDS011;38263;52.920;6.238;2024-01-27T01:46:32;13.18;;;2.70;;
52322;SDS011;38263;52.920;6.238;2024-01-27T01:48:58;12.75;;;2.80;;
52322;SDS011;38263;52.920;6.238;2024-01-27T01:51:25;14.13;;;3.30;;
52322;SDS011;38263;52.920;6.238;2024-01-27T01:53:51;22.13;;;3.80;;
52322;SDS011;38263;52.920;6.238;2024-01-27T01:56:20;14.10;;;2.97;;
52322;SDS011;38263;52.920;6.238;2024-01-27T01:58:46;8.18;;;2.83;;
52322;SDS011;38263;52.920;6.238;2024-01-27T02:01:12;13.13;;;3.63;;
52322;SDS011;38263;52.920;6.238;2024-01-27T02:03:38;21.60;;;3.10;;
52322;SDS011;38263;52.920;6.238;2024-01-27T02:06:04;15.52;;;2.83;;
52322;SDS011;38263;52.920;6.238;2024-01-27T02:08:31;16.98;;;2.67;;
52322;SDS011;38263;52.920;6.238;2024-01-27T02:10:57;19.42;;;3.55;;
52322;SDS011;38263;52.920;6.238;2024-01-27T02:13:26;20.15;;;3.70;;
52322;SDS011;38263;52.920;6.238;2024-01-27T02:15:52;17.58;;;3.13;;
52322;SDS011;38263;52.920;6.238;2024-01-27T02:18:18;15.43;;;3.08;;
52322;SDS011;38263;52.920;6.238;2024-01-27T02:20:45;15.88;;;2.65;;
52322;SDS011;38263;52.920;6.238;2024-01-27T02:23:11;10.90;;;3.47;;
52322;SDS011;38263;52.920;6.238;2024-01-27T02:25:37;13.80;;;2.88;;
52322;SDS011;38263;52.920;6.238;2024-01-27T02:28:04;14.30;;;2.90;;
52322;SDS011;38263;52.920;6.238;2024-01-27T02:30:30;20.23;;;3.38;;
52322;SDS011;38263;52.920;6.238;2024-01-27T02:32:56;15.07;;;3.40;;
52322;SDS011;38263;52.920;6.238;2024-01-27T02:35:23;13.55;;;3.08;;
52322;SDS011;38263;52.920;6.238;2024-01-27T02:37:49;21.70;;;3.58;;
52322;SDS011;38263;52.920;6.238;2024-01-27T02:40:15;21.80;;;3.03;;
52322;SDS011;38263;52.920;6.238;2024-01-27T02:42:41;15.25;;;3.05;;
52322;SDS011;38263;52.920;6.238;2024-01-27T02:45:08;12.85;;;3.00;;
52322;SDS011;38263;52.920;6.238;2024-01-27T02:47:35;12.13;;;2.88;;
52322;SDS011;38263;52.920;6.238;2024-01-27T02:50:02;12.30;;;2.92;;
52322;SDS011;38263;52.920;6.238;2024-01-27T02:52:28;12.95;;;2.50;;
52322;SDS011;38263;52.920;6.238;2024-01-27T02:54:55;16.52;;;3.25;;
52322;SDS011;38263;52.920;6.238;2024-01-27T02:57:21;14.85;;;3.17;;
52322;SDS011;38263;52.920;6.238;2024-01-27T02:59:47;17.70;;;2.78;;
52322;SDS011;38263;52.920;6.238;2024-01-27T03:02:13;14.35;;;2.88;;
52322;SDS011;38263;52.920;6.238;2024-01-27T03:04:39;12.95;;;2.63;;
52322;SDS011;38263;52.920;6.238;2024-01-27T03:07:05;16.02;;;3.63;;
52322;SDS011;38263;52.920;6.238;2024-01-27T03:09:31;18.83;;;3.53;;
52322;SDS011;38263;52.920;6.238;2024-01-27T03:11:57;13.13;;;2.83;;
52322;SDS011;38263;52.920;6.238;2024-01-27T03:14:24;9.90;;;2.80;;
52322;SDS011;38263;52.920;6.238;2024-01-27T03:16:50;16.77;;;3.30;;
52322;SDS011;38263;52.920;6.238;2024-01-27T03:19:16;22.90;;;3.65;;
52322;SDS011;38263;52.920;6.238;2024-01-27T03:21:42;9.43;;;2.55;;
52322;SDS011;38263;52.920;6.238;2024-01-27T03:24:08;14.40;;;2.83;;
52322;SDS011;38263;52.920;6.238;2024-01-27T03:26:34;18.77;;;2.55;;
52322;SDS011;38263;52.920;6.238;2024-01-27T03:29:00;11.45;;;2.78;;
52322;SDS011;38263;52.920;6.238;2024-01-27T03:31:29;21.77;;;3.17;;
52322;SDS011;38263;52.920;6.238;2024-01-27T03:33:56;16.17;;;2.85;;
52322;SDS011;38263;52.920;6.238;2024-01-27T03:36:22;14.10;;;2.55;;
52322;SDS011;38263;52.920;6.238;2024-01-27T03:38:48;15.70;;;3.05;;
52322;SDS011;38263;52.920;6.238;2024-01-27T03:41:14;11.32;;;2.38;;
52322;SDS011;38263;52.920;6.238;2024-01-27T03:43:40;13.63;;;3.03;;
52322;SDS011;38263;52.920;6.238;2024-01-27T03:46:06;20.20;;;3.15;;
52322;SDS011;38263;52.920;6.238;2024-01-27T03:48:32;17.17;;;2.95;;
52322;SDS011;38263;52.920;6.238;2024-01-27T03:51:00;11.32;;;2.97;;
52322;SDS011;38263;52.920;6.238;2024-01-27T03:53:26;13.40;;;3.25;;
52322;SDS011;38263;52.920;6.238;2024-01-27T03:55:52;12.82;;;2.92;;
52322;SDS011;38263;52.920;6.238;2024-01-27T03:58:18;17.95;;;2.80;;
52322;SDS011;38263;52.920;6.238;2024-01-27T04:00:44;17.40;;;3.20;;
52322;SDS011;38263;52.920;6.238;2024-01-27T04:03:11;15.23;;;3.83;;
52322;SDS011;38263;52.920;6.238;2024-01-27T04:05:37;18.77;;;4.10;;
52322;SDS011;38263;52.920;6.238;2024-01-27T04:08:04;15.13;;;2.97;;
52322;SDS011;38263;52.920;6.238;2024-01-27T04:10:31;15.80;;;4.13;;
52322;SDS011;38263;52.920;6.238;2024-01-27T04:12:57;19.98;;;4.68;;
52322;SDS011;38263;52.920;6.238;2024-01-27T04:15:23;15.40;;;3.80;;
52322;SDS011;38263;52.920;6.238;2024-01-27T04:17:49;20.70;;;3.42;;
52322;SDS011;38263;52.920;6.238;2024-01-27T04:20:15;18.73;;;3.90;;
52322;SDS011;38263;52.920;6.238;2024-01-27T04:22:41;22.63;;;3.80;;
52322;SDS011;38263;52.920;6.238;2024-01-27T04:25:07;8.95;;;3.10;;
52322;SDS011;38263;52.920;6.238;2024-01-27T04:27:36;21.35;;;3.63;;
52322;SDS011;38263;52.920;6.238;2024-01-27T04:30:06;20.40;;;3.92;;
52322;SDS011;38263;52.920;6.238;2024-01-27T04:32:32;17.17;;;4.20;;
52322;SDS011;38263;52.920;6.238;2024-01-27T04:34:58;20.33;;;3.90;;
52322;SDS011;38263;52.920;6.238;2024-01-27T04:37:24;14.77;;;2.78;;
52322;SDS011;38263;52.920;6.238;2024-01-27T04:39:50;9.48;;;2.88;;
52322;SDS011;38263;52.920;6.238;2024-01-27T04:42:16;20.98;;;3.45;;
52322;SDS011;38263;52.920;6.238;2024-01-27T04:44:42;14.60;;;4.43;;
52322;SDS011;38263;52.920;6.238;2024-01-27T04:47:08;23.05;;;3.75;;
52322;SDS011;38263;52.920;6.238;2024-01-27T04:49:34;22.23;;;3.83;;
52322;SDS011;38263;52.920;6.238;2024-01-27T04:52:00;14.65;;;3.03;;
52322;SDS011;38263;52.920;6.238;2024-01-27T04:54:27;14.50;;;2.80;;
52322;SDS011;38263;52.920;6.238;2024-01-27T04:56:52;13.68;;;3.42;;
52322;SDS011;38263;52.920;6.238;2024-01-27T04:59:18;15.90;;;3.83;;
52322;SDS011;38263;52.920;6.238;2024-01-27T05:01:45;18.30;;;3.17;;
52322;SDS011;38263;52.920;6.238;2024-01-27T05:04:11;14.88;;;3.20;;
52322;SDS011;38263;52.920;6.238;2024-01-27T05:06:37;19.67;;;4.68;;
52322;SDS011;38263;52.920;6.238;2024-01-27T05:09:04;14.23;;;3.60;;
52322;SDS011;38263;52.920;6.238;2024-01-27T05:11:33;12.30;;;2.80;;
52322;SDS011;38263;52.920;6.238;2024-01-27T05:13:59;17.25;;;3.63;;
52322;SDS011;38263;52.920;6.238;2024-01-27T05:16:25;16.67;;;3.90;;
52322;SDS011;38263;52.920;6.238;2024-01-27T05:18:51;17.23;;;4.13;;
52322;SDS011;38263;52.920;6.238;2024-01-27T05:21:17;15.50;;;2.92;;
52322;SDS011;38263;52.920;6.238;2024-01-27T05:23:43;21.52;;;3.47;;
52322;SDS011;38263;52.920;6.238;2024-01-27T05:26:09;13.55;;;2.80;;
52322;SDS011;38263;52.920;6.238;2024-01-27T05:28:36;20.27;;;3.13;;
52322;SDS011;38263;52.920;6.238;2024-01-27T05:31:03;17.17;;;3.22;;
52322;SDS011;38263;52.920;6.238;2024-01-27T05:33:29;19.67;;;3.95;;
52322;SDS011;38263;52.920;6.238;2024-01-27T05:35:55;9.18;;;3.03;;
52322;SDS011;38263;52.920;6.238;2024-01-27T05:38:21;22.33;;;4.03;;
52322;SDS011;38263;52.920;6.238;2024-01-27T05:40:47;14.18;;;3.28;;
52322;SDS011;38263;52.920;6.238;2024-01-27T05:43:15;6.50;;;2.80;;
52322;SDS011;38263;52.920;6.238;2024-01-27T05:45:41;10.45;;;3.25;;
52322;SDS011;38263;52.920;6.238;2024-01-27T05:48:07;18.10;;;4.05;;
52322;SDS011;38263;52.920;6.238;2024-01-27T05:50:33;19.42;;;4.03;;
52322;SDS011;38263;52.920;6.238;2024-01-27T05:53:00;17.90;;;3.45;;
52322;SDS011;38263;52.920;6.238;2024-01-27T05:55:26;17.75;;;3.92;;
52322;SDS011;38263;52.920;6.238;2024-01-27T05:57:52;24.65;;;4.20;;
52322;SDS011;38263;52.920;6.238;2024-01-27T06:00:20;20.05;;;4.07;;
52322;SDS011;38263;52.920;6.238;2024-01-27T06:02:46;13.38;;;3.63;;
52322;SDS011;38263;52.920;6.238;2024-01-27T06:05:12;15.50;;;4.32;;
52322;SDS011;38263;52.920;6.238;2024-01-27T06:07:38;17.58;;;3.53;;
52322;SDS011;38263;52.920;6.238;2024-01-27T06:10:06;18.80;;;4.40;;
52322;SDS011;38263;52.920;6.238;2024-01-27T06:12:33;15.95;;;3.55;;
52322;SDS011;38263;52.920;6.238;2024-01-27T06:14:59;19.23;;;3.60;;
52322;SDS011;38263;52.920;6.238;2024-01-27T06:17:25;20.20;;;3.47;;
52322;SDS011;38263;52.920;6.238;2024-01-27T06:19:51;18.25;;;3.95;;
52322;SDS011;38263;52.920;6.238;2024-01-27T06:22:17;22.77;;;4.03;;
52322;SDS011;38263;52.920;6.238;2024-01-27T06:24:43;14.85;;;2.97;;
52322;SDS011;38263;52.920;6.238;2024-01-27T06:27:10;14.60;;;2.67;;
52322;SDS011;38263;52.920;6.238;2024-01-27T06:29:36;17.67;;;3.75;;
52322;SDS011;38263;52.920;6.238;2024-01-27T06:32:03;23.42;;;4.78;;
52322;SDS011;38263;52.920;6.238;2024-01-27T06:34:29;17.08;;;3.80;;
52322;SDS011;38263;52.920;6.238;2024-01-27T06:36:55;16.02;;;3.13;;
52322;SDS011;38263;52.920;6.238;2024-01-27T06:39:21;24.83;;;4.07;;
52322;SDS011;38263;52.920;6.238;2024-01-27T06:41:47;24.75;;;4.20;;
52322;SDS011;38263;52.920;6.238;2024-01-27T06:44:13;19.02;;;4.25;;
52322;SDS011;38263;52.920;6.238;2024-01-27T06:46:39;13.77;;;3.47;;
52322;SDS011;38263;52.920;6.238;2024-01-27T06:49:05;16.08;;;4.10;;
52322;SDS011;38263;52.920;6.238;2024-01-27T06:51:31;15.57;;;3.25;;
52322;SDS011;38263;52.920;6.238;2024-01-27T06:53:57;16.20;;;4.03;;
52322;SDS011;38263;52.920;6.238;2024-01-27T06:56:23;24.67;;;5.97;;
52322;SDS011;38263;52.920;6.238;2024-01-27T06:58:49;13.30;;;3.40;;
52322;SDS011;38263;52.920;6.238;2024-01-27T07:01:15;21.90;;;4.10;;
52322;SDS011;38263;52.920;6.238;2024-01-27T07:03:41;17.33;;;4.93;;
52322;SDS011;38263;52.920;6.238;2024-01-27T07:06:09;17.48;;;4.13;;
52322;SDS011;38263;52.920;6.238;2024-01-27T07:08:35;24.75;;;4.47;;
52322;SDS011;38263;52.920;6.238;2024-01-27T07:11:01;12.90;;;3.22;;
52322;SDS011;38263;52.920;6.238;2024-01-27T07:13:27;13.02;;;3.80;;
52322;SDS011;38263;52.920;6.238;2024-01-27T07:15:55;18.13;;;4.72;;
52322;SDS011;38263;52.920;6.238;2024-01-27T07:18:21;18.23;;;3.80;;
52322;SDS011;38263;52.920;6.238;2024-01-27T07:20:47;14.73;;;5.95;;
52322;SDS011;38263;52.920;6.238;2024-01-27T07:23:13;21.45;;;4.85;;
52322;SDS011;38263;52.920;6.238;2024-01-27T07:25:39;17.35;;;5.32;;
52322;SDS011;38263;52.920;6.238;2024-01-27T07:28:05;23.10;;;5.55;;
52322;SDS011;38263;52.920;6.238;2024-01-27T07:30:31;13.57;;;4.82;;
52322;SDS011;38263;52.920;6.238;2024-01-27T07:32:57;14.68;;;5.20;;
52322;SDS011;38263;52.920;6.238;2024-01-27T07:35:23;22.38;;;6.10;;
52322;SDS011;38263;52.920;6.238;2024-01-27T07:37:49;19.05;;;5.35;;
52322;SDS011;38263;52.920;6.238;2024-01-27T07:40:15;17.02;;;4.90;;
52322;SDS011;38263;52.920;6.238;2024-01-27T07:42:41;16.95;;;7.60;;
52322;SDS011;38263;52.920;6.238;2024-01-27T07:45:08;16.85;;;5.80;;
52322;SDS011;38263;52.920;6.238;2024-01-27T07:47:34;19.58;;;5.45;;
52322;SDS011;38263;52.920;6.238;2024-01-27T07:50:00;19.58;;;5.97;;
52322;SDS011;38263;52.920;6.238;2024-01-27T07:52:26;19.65;;;6.43;;
52322;SDS011;38263;52.920;6.238;2024-01-27T07:54:52;21.85;;;7.03;;
52322;SDS011;38263;52.920;6.238;2024-01-27T07:57:19;22.95;;;5.80;;
52322;SDS011;38263;52.920;6.238;2024-01-27T07:59:45;21.75;;;5.88;;
52322;SDS011;38263;52.920;6.238;2024-01-27T08:02:11;14.98;;;7.18;;
52322;SDS011;38263;52.920;6.238;2024-01-27T08:04:38;18.35;;;6.78;;
52322;SDS011;38263;52.920;6.238;2024-01-27T08:07:04;22.60;;;6.45;;
52322;SDS011;38263;52.920;6.238;2024-01-27T08:09:35;17.50;;;6.70;;
52322;SDS011;38263;52.920;6.238;2024-01-27T08:12:01;20.50;;;6.80;;
52322;SDS011;38263;52.920;6.238;2024-01-27T08:14:27;25.08;;;7.55;;
52322;SDS011;38263;52.920;6.238;2024-01-27T08:16:58;27.00;;;6.88;;
52322;SDS011;38263;52.920;6.238;2024-01-27T08:19:24;15.70;;;6.45;;
52322;SDS011;38263;52.920;6.238;2024-01-27T08:21:50;26.58;;;7.88;;
52322;SDS011;38263;52.920;6.238;2024-01-27T08:24:16;17.25;;;6.50;;
52322;SDS011;38263;52.920;6.238;2024-01-27T08:26:42;18.75;;;6.75;;
52322;SDS011;38263;52.920;6.238;2024-01-27T08:29:10;22.13;;;6.70;;
52322;SDS011;38263;52.920;6.238;2024-01-27T08:31:36;27.25;;;6.72;;
52322;SDS011;38263;52.920;6.238;2024-01-27T08:34:03;18.10;;;7.53;;
52322;SDS011;38263;52.920;6.238;2024-01-27T08:36:30;17.63;;;5.93;;
52322;SDS011;38263;52.920;6.238;2024-01-27T08:38:56;15.23;;;6.90;;
52322;SDS011;38263;52.920;6.238;2024-01-27T08:41:22;23.00;;;6.40;;
52322;SDS011;38263;52.920;6.238;2024-01-27T08:43:48;18.27;;;6.82;;
52322;SDS011;38263;52.920;6.238;2024-01-27T08:46:14;21.70;;;6.30;;
52322;SDS011;38263;52.920;6.238;2024-01-27T08:48:42;19.95;;;6.68;;
52322;SDS011;38263;52.920;6.238;2024-01-27T08:51:09;15.20;;;5.50;;
52322;SDS011;38263;52.920;6.238;2024-01-27T08:53:35;19.25;;;5.97;;
52322;SDS011;38263;52.920;6.238;2024-01-27T08:56:01;18.65;;;6.60;;
52322;SDS011;38263;52.920;6.238;2024-01-27T08:58:27;15.85;;;5.65;;
52322;SDS011;38263;52.920;6.238;2024-01-27T09:00:53;17.92;;;6.47;;
52322;SDS011;38263;52.920;6.238;2024-01-27T09:03:19;23.45;;;6.50;;
52322;SDS011;38263;52.920;6.238;2024-01-27T09:05:46;22.65;;;6.55;;
52322;SDS011;38263;52.920;6.238;2024-01-27T09:08:12;22.38;;;6.47;;
52322;SDS011;38263;52.920;6.238;2024-01-27T09:10:38;20.50;;;6.78;;
52322;SDS011;38263;52.920;6.238;2024-01-27T09:13:04;19.67;;;5.85;;
52322;SDS011;38263;52.920;6.238;2024-01-27T09:15:30;17.00;;;6.25;;
52322;SDS011;38263;52.920;6.238;2024-01-27T09:17:56;19.45;;;6.35;;
52322;SDS011;38263;52.920;6.238;2024-01-27T09:20:22;19.75;;;8.00;;
52322;SDS011;38263;52.920;6.238;2024-01-27T09:22:48;19.67;;;5.32;;
52322;SDS011;38263;52.920;6.238;2024-01-27T09:25:15;17.55;;;5.90;;
52322;SDS011;38263;52.920;6.238;2024-01-27T09:27:41;21.85;;;6.65;;
52322;SDS011;38263;52.920;6.238;2024-01-27T09:30:08;22.35;;;5.75;;
52322;SDS011;38263;52.920;6.238;2024-01-27T09:32:34;22.15;;;6.60;;
52322;SDS011;38263;52.920;6.238;2024-01-27T09:35:00;23.83;;;6.18;;
52322;SDS011;38263;52.920;6.238;2024-01-27T09:37:26;19.35;;;6.13;;
52322;SDS011;38263;52.920;6.238;2024-01-27T09:39:52;15.13;;;5.95;;
52322;SDS011;38263;52.920;6.238;2024-01-27T09:42:20;15.27;;;5.55;;
52322;SDS011;38263;52.920;6.238;2024-01-27T09:44:48;18.90;;;6.50;;
52322;SDS011;38263;52.920;6.238;2024-01-27T09:47:14;17.38;;;6.65;;
52322;SDS011;38263;52.920;6.238;2024-01-27T09:49:40;24.77;;;6.47;;
52322;SDS011;38263;52.920;6.238;2024-01-27T09:52:07;19.42;;;6.03;;
52322;SDS011;38263;52.920;6.238;2024-01-27T09:54:34;12.90;;;5.45;;
52322;SDS011;38263;52.920;6.238;2024-01-27T09:57:01;24.10;;;6.72;;
52322;SDS011;38263;52.920;6.238;2024-01-27T09:59:27;17.40;;;5.95;;
52322;SDS011;38263;52.920;6.238;2024-01-27T10:01:54;16.88;;;6.45;;
52322;SDS011;38263;52.920;6.238;2024-01-27T10:04:22;18.70;;;6.20;;
52322;SDS011;38263;52.920;6.238;2024-01-27T10:06:48;17.83;;;6.40;;
52322;SDS011;38263;52.920;6.238;2024-01-27T10:09:16;18.58;;;6.28;;
52322;SDS011;38263;52.920;6.238;2024-01-27T10:11:43;20.83;;;6.47;;
52322;SDS011;38263;52.920;6.238;2024-01-27T10:14:11;19.10;;;5.90;;
52322;SDS011;38263;52.920;6.238;2024-01-27T10:16:41;17.90;;;6.45;;
52322;SDS011;38263;52.920;6.238;2024-01-27T10:19:08;19.38;;;7.57;;
52322;SDS011;38263;52.920;6.238;2024-01-27T10:21:37;13.93;;;5.93;;
52322;SDS011;38263;52.920;6.238;2024-01-27T10:24:03;16.90;;;6.22;;
52322;SDS011;38263;52.920;6.238;2024-01-27T10:26:31;21.55;;;6.80;;
52322;SDS011;38263;52.920;6.238;2024-01-27T10:28:58;19.67;;;5.93;;
52322;SDS011;38263;52.920;6.238;2024-01-27T10:31:27;19.92;;;6.22;;
52322;SDS011;38263;52.920;6.238;2024-01-27T10:33:54;27.92;;;6.60;;
52322;SDS011;38263;52.920;6.238;2024-01-27T10:36:24;18.67;;;6.75;;
52322;SDS011;38263;52.920;6.238;2024-01-27T10:38:53;19.73;;;7.40;;
52322;SDS011;38263;52.920;6.238;2024-01-27T10:41:21;21.63;;;7.80;;
52322;SDS011;38263;52.920;6.238;2024-01-27T10:43:49;23.70;;;6.55;;
52322;SDS011;38263;52.920;6.238;2024-01-27T10:46:18;17.88;;;6.65;;
52322;SDS011;38263;52.920;6.238;2024-01-27T10:48:48;23.15;;;6.53;;
52322;SDS011;38263;52.920;6.238;2024-01-27T10:51:28;19.05;;;6.00;;
52322;SDS011;38263;52.920;6.238;2024-01-27T10:53:58;23.02;;;5.82;;
52322;SDS011;38263;52.920;6.238;2024-01-27T10:56:32;17.35;;;6.13;;
52322;SDS011;38263;52.920;6.238;2024-01-27T10:58:58;23.25;;;5.75;;
52322;SDS011;38263;52.920;6.238;2024-01-27T11:01:25;16.95;;;5.55;;
52322;SDS011;38263;52.920;6.238;2024-01-27T11:03:52;15.32;;;4.65;;
52322;SDS011;38263;52.920;6.238;2024-01-27T11:06:21;22.77;;;5.90;;
52322;SDS011;38263;52.920;6.238;2024-01-27T11:08:50;23.23;;;6.03;;
52322;SDS011;38263;52.920;6.238;2024-01-27T11:11:17;17.65;;;5.57;;
52322;SDS011;38263;52.920;6.238;2024-01-27T11:13:44;12.40;;;5.50;;
52322;SDS011;38263;52.920;6.238;2024-01-27T11:16:16;17.98;;;5.55;;
52322;SDS011;38263;52.920;6.238;2024-01-27T11:18:43;15.48;;;5.85;;
52322;SDS011;38263;52.920;6.238;2024-01-27T11:21:16;14.00;;;5.55;;
52322;SDS011;38263;52.920;6.238;2024-01-27T11:23:42;19.67;;;6.28;;
52322;SDS011;38263;52.920;6.238;2024-01-27T11:26:10;19.30;;;5.22;;
52322;SDS011;38263;52.920;6.238;2024-01-27T11:28:39;19.25;;;5.47;;
52322;SDS011;38263;52.920;6.238;2024-01-27T11:31:06;17.95;;;5.63;;
52322;SDS011;38263;52.920;6.238;2024-01-27T11:33:32;24.13;;;5.90;;
52322;SDS011;38263;52.920;6.238;2024-01-27T11:36:02;15.52;;;5.57;;
52322;SDS011;38263;52.920;6.238;2024-01-27T11:38:30;18.67;;;5.80;;
52322;SDS011;38263;52.920;6.238;2024-01-27T11:40:56;18.42;;;5.68;;
52322;SDS011;38263;52.920;6.238;2024-01-27T11:43:22;18.50;;;5.75;;
52322;SDS011;38263;52.920;6.238;2024-01-27T11:45:55;20.80;;;5.38;;
52322;SDS011;38263;52.920;6.238;2024-01-27T11:48:21;19.15;;;6.50;;
52322;SDS011;38263;52.920;6.238;2024-01-27T11:50:48;20.20;;;6.60;;
52322;SDS011;38263;52.920;6.238;2024-01-27T11:53:14;20.25;;;5.85;;
52322;SDS011;38263;52.920;6.238;2024-01-27T11:55:40;20.73;;;5.78;;
52322;SDS011;38263;52.920;6.238;2024-01-27T11:58:05;18.00;;;6.18;;
52322;SDS011;38263;52.920;6.238;2024-01-27T12:00:31;14.60;;;5.35;;
52322;SDS011;38263;52.920;6.238;2024-01-27T12:02:57;16.33;;;5.15;;
52322;SDS011;38263;52.920;6.238;2024-01-27T12:05:23;16.63;;;5.32;;
52322;SDS011;38263;52.920;6.238;2024-01-27T12:07:49;18.98;;;4.97;;
52322;SDS011;38263;52.920;6.238;2024-01-27T12:10:16;16.63;;;4.90;;
52322;SDS011;38263;52.920;6.238;2024-01-27T12:12:42;14.25;;;4.80;;
52322;SDS011;38263;52.920;6.238;2024-01-27T12:15:08;21.60;;;6.00;;
52322;SDS011;38263;52.920;6.238;2024-01-27T12:17:34;20.52;;;5.63;;
52322;SDS011;38263;52.920;6.238;2024-01-27T12:20:00;19.67;;;5.60;;
52322;SDS011;38263;52.920;6.238;2024-01-27T12:22:27;18.00;;;5.05;;
52322;SDS011;38263;52.920;6.238;2024-01-27T12:25:08;17.73;;;4.90;;
52322;SDS011;38263;52.920;6.238;2024-01-27T12:27:34;19.83;;;4.85;;
52322;SDS011;38263;52.920;6.238;2024-01-27T12:30:01;13.70;;;4.60;;
52322;SDS011;38263;52.920;6.238;2024-01-27T12:32:27;25.40;;;6.00;;
52322;SDS011;38263;52.920;6.238;2024-01-27T12:34:53;18.58;;;5.68;;
52322;SDS011;38263;52.920;6.238;2024-01-27T12:37:21;21.90;;;5.03;;
52322;SDS011;38263;52.920;6.238;2024-01-27T12:39:47;21.05;;;5.20;;
52322;SDS011;38263;52.920;6.238;2024-01-27T12:42:16;18.85;;;5.88;;
52322;SDS011;38263;52.920;6.238;2024-01-27T12:44:42;23.67;;;5.78;;
52322;SDS011;38263;52.920;6.238;2024-01-27T12:47:09;22.00;;;5.03;;
52322;SDS011;38263;52.920;6.238;2024-01-27T12:49:35;14.70;;;5.05;;
52322;SDS011;38263;52.920;6.238;2024-01-27T12:52:01;18.58;;;7.38;;
52322;SDS011;38263;52.920;6.238;2024-01-27T12:54:27;15.10;;;4.78;;
52322;SDS011;38263;52.920;6.238;2024-01-27T12:56:54;16.30;;;5.25;;
52322;SDS011;38263;52.920;6.238;2024-01-27T12:59:21;17.02;;;4.80;;
52322;SDS011;38263;52.920;6.238;2024-01-27T13:01:48;21.88;;;6.35;;
52322;SDS011;38263;52.920;6.238;2024-01-27T13:04:14;17.92;;;5.13;;
52322;SDS011;38263;52.920;6.238;2024-01-27T13:06:40;15.07;;;5.28;;
52322;SDS011;38263;52.920;6.238;2024-01-27T13:09:06;17.50;;;4.85;;
52322;SDS011;38263;52.920;6.238;2024-01-27T13:11:32;22.55;;;6.15;;
52322;SDS011;38263;52.920;6.238;2024-01-27T13:13:58;20.65;;;6.45;;
52322;SDS011;38263;52.920;6.238;2024-01-27T13:16:24;24.38;;;6.22;;
52322;SDS011;38263;52.920;6.238;2024-01-27T13:18:49;18.40;;;5.63;;
52322;SDS011;38263;52.920;6.238;2024-01-27T13:21:15;17.42;;;4.93;;
52322;SDS011;38263;52.920;6.238;2024-01-27T13:23:42;20.92;;;5.88;;
52322;SDS011;38263;52.920;6.238;2024-01-27T13:26:07;17.38;;;5.65;;
52322;SDS011;38263;52.920;6.238;2024-01-27T13:28:33;22.65;;;6.20;;
52322;SDS011;38263;52.920;6.238;2024-01-27T13:30:59;22.42;;;6.25;;
52322;SDS011;38263;52.920;6.238;2024-01-27T13:33:25;24.70;;;8.38;;
52322;SDS011;38263;52.920;6.238;2024-01-27T13:35:53;25.00;;;8.10;;
52322;SDS011;38263;52.920;6.238;2024-01-27T13:38:19;30.88;;;9.40;;
52322;SDS011;38263;52.920;6.238;2024-01-27T13:40:48;21.98;;;8.10;;
52322;SDS011;38263;52.920;6.238;2024-01-27T13:43:15;22.30;;;8.00;;
52322;SDS011;38263;52.920;6.238;2024-01-27T13:45:40;31.17;;;9.68;;
52322;SDS011;38263;52.920;6.238;2024-01-27T13:48:07;24.75;;;6.82;;
52322;SDS011;38263;52.920;6.238;2024-01-27T13:50:33;22.27;;;6.35;;
52322;SDS011;38263;52.920;6.238;2024-01-27T13:52:59;22.38;;;5.78;;
52322;SDS011;38263;52.920;6.238;2024-01-27T13:55:24;19.77;;;5.97;;
52322;SDS011;38263;52.920;6.238;2024-01-27T13:57:50;27.42;;;5.72;;
52322;SDS011;38263;52.920;6.238;2024-01-27T14:00:16;20.27;;;6.45;;
52322;SDS011;38263;52.920;6.238;2024-01-27T14:02:43;19.88;;;6.05;;
52322;SDS011;38263;52.920;6.238;2024-01-27T14:05:09;23.25;;;5.63;;
52322;SDS011;38263;52.920;6.238;2024-01-27T14:07:34;17.58;;;5.30;;
52322;SDS011;38263;52.920;6.238;2024-01-27T14:10:01;24.60;;;5.63;;
52322;SDS011;38263;52.920;6.238;2024-01-27T14:12:27;17.20;;;5.22;;
52322;SDS011;38263;52.920;6.238;2024-01-27T14:15:02;26.33;;;5.78;;
52322;SDS011;38263;52.920;6.238;2024-01-27T14:17:29;19.80;;;5.85;;
52322;SDS011;38263;52.920;6.238;2024-01-27T14:19:55;18.20;;;5.20;;
52322;SDS011;38263;52.920;6.238;2024-01-27T14:22:21;20.35;;;5.63;;
52322;SDS011;38263;52.920;6.238;2024-01-27T14:24:47;24.60;;;6.30;;
52322;SDS011;38263;52.920;6.238;2024-01-27T14:27:13;18.42;;;5.40;;
52322;SDS011;38263;52.920;6.238;2024-01-27T14:29:39;19.90;;;5.60;;
52322;SDS011;38263;52.920;6.238;2024-01-27T14:32:05;18.10;;;5.72;;